Terminal Aerodrome Forecast
Issued by NWS

Home | Current Version | Previous Version | Text Only | Print | Product List | Glossary On
Versions: 1 2 3 4 5 6 7 8 9 10 11 12 13 14 15 16 17
369
FTUS44 KCRP 261129
TAFALI
TAF
KALI 261129Z 2612/2712 12004KT P6SM VCSH SCT018 OVC150
      TEMPO 2612/2616 4SM SHRA BR BKN018
     FM261600 14010KT P6SM VCTS BKN025CB BKN150
      TEMPO 2616/2620 4SM TSRA BR OVC018CB
     FM262000 12012KT P6SM -SHRA SCT030 BKN150
      TEMPO 2620/2624 3SM TSRA BR OVC030CB
     FM270000 11014KT P6SM SCT040 BKN120
     FM270800 09007KT P6SM VCSH BKN025 OVC100 PROB30 2708/2712 5SM
      SHRA OVC020=

USA.gov is the U.S. government's official web portal to all federal, state and local government web resources and services.